Time;durP1;ratioP1;P1;durP2;ratioP2;P2;SDS_P1;SDS_P2;PMS_P1;PMS_P2;Temp;Humidity;BMP_temperature;BMP_pressure;BME280_temperature;BME280_humidity;BME280_pressure;Samples;Min_cycle;Max_cycle;Signal;HPM_P1;HPM_P2
2022/02/15 00:01:25;;;;;;;;;;;5.10;99.90;;;;;;5077120;28;20362;-52
2022/02/15 00:03:53;;;;;;;;;;;5.10;99.90;;;;;;5076505;28;19925;-53
2022/02/15 00:06:19;;;;;;;;;;;5.10;99.90;;;;;;5076196;28;20538;-54
2022/02/15 00:08:46;;;;;;;;;;;5.10;99.90;;;;;;5057759;28;20028;-53
2022/02/15 00:11:14;;;;;;;;;;;5.10;99.90;;;;;;5059081;28;19989;-53
2022/02/15 00:13:41;;;;;;;;;;;5.10;99.90;;;;;;5076005;28;19932;-55
2022/02/15 00:16:08;;;;;;;;;;;5.10;99.90;;;;;;5076638;28;20375;-54
2022/02/15 00:18:35;;;;;;;;;;;5.20;99.90;;;;;;5059569;28;19925;-53
2022/02/15 00:21:01;;;;;;;;;;;5.50;99.90;;;;;;5056035;28;19924;-56
2022/02/15 00:23:31;;;;;;;;;;;5.60;99.90;;;;;;5077412;28;19924;-53
2022/02/15 00:25:58;;;;;;;;;;;5.50;99.90;;;;;;5093051;28;20443;-53
2022/02/15 00:28:26;;;;;;;;;;;5.40;99.90;;;;;;5075287;28;20001;-52
2022/02/15 00:30:53;;;;;;;;;;;5.40;99.90;;;;;;5076708;28;19986;-52
2022/02/15 00:33:19;;;;;;;;;;;5.40;99.90;;;;;;5096763;28;20745;-54
2022/02/15 00:35:46;;;;;;;;;;;5.30;99.90;;;;;;5095579;28;20000;-54
2022/02/15 00:38:13;;;;;;;;;;;5.20;99.90;;;;;;5081634;28;19993;-53
2022/02/15 00:40:40;;;;;;;;;;;5.10;99.90;;;;;;5075215;28;20275;-54
2022/02/15 00:43:07;;;;;;;;;;;5.20;99.90;;;;;;5075095;28;20004;-53
2022/02/15 00:45:35;;;;;;;;;;;5.30;99.90;;;;;;5074685;28;20019;-54
2022/02/15 00:48:02;;;;;;;;;;;5.30;99.90;;;;;;5064475;28;19933;-54
2022/02/15 00:50:29;;;;;;;;;;;5.20;99.90;;;;;;5054973;28;19971;-53
2022/02/15 00:52:55;;;;;;;;;;;5.00;99.90;;;;;;5053861;28;19986;-54
2022/02/15 00:55:22;;;;;;;;;;;5.00;99.90;;;;;;5054702;28;19928;-54
2022/02/15 00:57:49;;;;;;;;;;;4.90;99.90;;;;;;5068964;28;19928;-55
2022/02/15 01:00:16;;;;;;;;;;;4.90;99.90;;;;;;5075154;28;19924;-53
2022/02/15 01:02:45;;;;;;;;;;;5.00;99.90;;;;;;5074721;28;19932;-53
2022/02/15 01:05:12;;;;;;;;;;;5.10;99.90;;;;;;5074819;28;20297;-54
2022/02/15 01:07:39;;;;;;;;;;;5.20;99.90;;;;;;5073866;28;19932;-54
2022/02/15 01:10:06;;;;;;;;;;;5.20;99.90;;;;;;5073861;28;20353;-53
2022/02/15 01:12:33;;;;;;;;;;;5.10;99.90;;;;;;5074946;28;19978;-54
2022/02/15 01:14:59;;;;;;;;;;;5.00;99.90;;;;;;5074786;28;19966;-53
2022/02/15 01:17:26;;;;;;;;;;;4.90;99.90;;;;;;5074118;28;19925;-54
2022/02/15 01:19:54;;;;;;;;;;;4.90;99.90;;;;;;5074172;28;19924;-54
2022/02/15 01:22:21;;;;;;;;;;;4.90;99.90;;;;;;5074056;28;19974;-54
2022/02/15 01:24:48;;;;;;;;;;;4.80;99.90;;;;;;5074631;28;19929;-53
2022/02/15 01:27:15;;;;;;;;;;;4.90;99.90;;;;;;5074230;28;20453;-53
2022/02/15 01:29:41;;;;;;;;;;;4.90;99.90;;;;;;5074117;28;20352;-53
2022/02/15 01:32:08;;;;;;;;;;;4.80;99.90;;;;;;5073632;28;19924;-53
2022/02/15 01:34:35;;;;;;;;;;;4.80;99.90;;;;;;5074642;28;19924;-52
2022/02/15 01:37:03;;;;;;;;;;;4.70;99.90;;;;;;5073882;28;20348;-54
2022/02/15 01:39:30;;;;;;;;;;;4.70;99.90;;;;;;5074059;28;19925;-53
2022/02/15 01:41:58;;;;;;;;;;;4.60;99.90;;;;;;5074158;28;19929;-53
2022/02/15 01:44:24;;;;;;;;;;;4.60;99.90;;;;;;5073986;28;19932;-53
2022/02/15 01:46:51;;;;;;;;;;;4.60;99.90;;;;;;5073408;28;19925;-53
2022/02/15 01:49:18;;;;;;;;;;;4.60;99.90;;;;;;5072907;28;19932;-54
2022/02/15 01:51:45;;;;;;;;;;;4.60;99.90;;;;;;5073830;28;19943;-53
2022/02/15 01:54:13;;;;;;;;;;;4.60;99.90;;;;;;5073636;28;19974;-53
2022/02/15 01:56:40;;;;;;;;;;;4.60;99.90;;;;;;5094916;22;19924;-50
2022/02/15 01:59:06;;;;;;;;;;;4.60;99.90;;;;;;5071240;28;19925;-49
2022/02/15 02:01:33;;;;;;;;;;;4.70;99.90;;;;;;5072039;28;20018;-51
2022/02/15 02:04:00;;;;;;;;;;;4.80;99.90;;;;;;5068718;28;19928;-51
2022/02/15 02:06:26;;;;;;;;;;;4.70;99.90;;;;;;5060383;28;19925;-50
2022/02/15 02:08:52;;;;;;;;;;;4.70;99.90;;;;;;5051794;28;19921;-49
2022/02/15 02:11:20;;;;;;;;;;;4.70;99.90;;;;;;5049390;28;19929;-49
2022/02/15 02:13:47;;;;;;;;;;;4.70;99.90;;;;;;5032151;28;20032;-50
2022/02/15 02:16:14;;;;;;;;;;;4.70;99.90;;;;;;5036278;28;19929;-52
2022/02/15 02:18:40;;;;;;;;;;;4.70;99.90;;;;;;5049769;28;19929;-50
2022/02/15 02:21:09;;;;;;;;;;;4.70;99.90;;;;;;5051596;28;19925;-50
2022/02/15 02:23:35;;;;;;;;;;;4.70;99.90;;;;;;5050295;28;19925;-49
2022/02/15 02:26:02;;;;;;;;;;;4.70;99.90;;;;;;5051541;28;19925;-51
2022/02/15 02:28:30;;;;;;;;;;;4.70;99.90;;;;;;5051615;28;19929;-50
2022/02/15 02:30:57;;;;;;;;;;;4.70;99.90;;;;;;5051841;28;19928;-49
2022/02/15 02:33:27;;;;;;;;;;;4.80;99.90;;;;;;5051735;28;19971;-49
2022/02/15 02:36:00;;;;;;;;;;;4.80;99.90;;;;;;5051750;28;19925;-48
2022/02/15 02:38:28;;;;;;;;;;;4.80;99.90;;;;;;5050707;28;20015;-51
2022/02/15 02:40:55;;;;;;;;;;;4.80;99.90;;;;;;5050988;28;19999;-49
2022/02/15 02:43:28;;;;;;;;;;;4.80;99.90;;;;;;5050940;28;20387;-50
2022/02/15 02:45:55;;;;;;;;;;;4.90;99.90;;;;;;5050828;28;19933;-51
2022/02/15 02:48:21;;;;;;;;;;;4.90;99.90;;;;;;5050733;28;19971;-49
2022/02/15 02:50:48;;;;;;;;;;;4.90;99.90;;;;;;5050695;28;19928;-51
2022/02/15 02:53:17;;;;;;;;;;;4.90;99.90;;;;;;5044788;28;20456;-50
2022/02/15 02:55:45;;;;;;;;;;;4.90;99.90;;;;;;5031497;28;19928;-50
2022/02/15 02:58:12;;;;;;;;;;;4.90;99.90;;;;;;5047591;28;19928;-50
2022/02/15 03:00:38;;;;;;;;;;;4.90;99.90;;;;;;5050721;28;19925;-50
2022/02/15 03:03:07;;;;;;;;;;;4.90;99.90;;;;;;5037997;28;19955;-52
2022/02/15 03:05:34;;;;;;;;;;;4.90;99.90;;;;;;5049951;28;19936;-50
2022/02/15 03:08:00;;;;;;;;;;;4.90;99.90;;;;;;5050333;28;19929;-50
2022/02/15 03:10:27;;;;;;;;;;;5.00;99.90;;;;;;5050699;28;20355;-51
2022/02/15 03:12:55;;;;;;;;;;;5.00;99.90;;;;;;5034338;28;19933;-50
2022/02/15 03:15:22;;;;;;;;;;;4.90;99.90;;;;;;5030383;28;20024;-51
2022/02/15 03:17:49;;;;;;;;;;;4.90;99.90;;;;;;5031383;28;19929;-51
2022/02/15 03:20:16;;;;;;;;;;;4.90;99.90;;;;;;5036091;28;19925;-51
2022/02/15 03:22:42;;;;;;;;;;;4.80;99.90;;;;;;5033858;28;19929;-51
2022/02/15 03:25:09;;;;;;;;;;;4.70;99.90;;;;;;5046369;28;19925;-50
2022/02/15 03:27:36;;;;;;;;;;;4.70;99.90;;;;;;5050957;28;19956;-51
2022/02/15 03:30:05;;;;;;;;;;;4.70;99.90;;;;;;5051127;28;19925;-50
2022/02/15 03:32:31;;;;;;;;;;;4.80;99.90;;;;;;5035824;28;19929;-50
2022/02/15 03:34:58;;;;;;;;;;;4.80;99.90;;;;;;5045569;28;19975;-50
2022/02/15 03:37:25;;;;;;;;;;;4.80;99.90;;;;;;5051074;28;19929;-50
2022/02/15 03:39:52;;;;;;;;;;;4.90;99.90;;;;;;5038391;28;19929;-51
2022/02/15 03:45:03;;;;;;;;;;;4.70;99.90;;;;;;5047074;28;19928;-51
2022/02/15 03:47:31;;;;;;;;;;;4.70;99.90;;;;;;5052747;28;19925;-50
2022/02/15 03:49:58;;;;;;;;;;;4.70;99.90;;;;;;5065852;28;20424;-52
2022/02/15 03:52:25;;;;;;;;;;;4.70;99.90;;;;;;5061461;28;19925;-51
2022/02/15 03:54:51;;;;;;;;;;;4.70;99.90;;;;;;5053890;28;20452;-50
2022/02/15 03:57:18;;;;;;;;;;;4.60;99.90;;;;;;5050607;28;19925;-51
2022/02/15 03:59:45;;;;;;;;;;;4.60;99.90;;;;;;5050427;28;20004;-50
2022/02/15 04:02:12;;;;;;;;;;;4.60;99.90;;;;;;5038650;28;19929;-50
2022/02/15 04:04:40;;;;;;;;;;;4.60;99.90;;;;;;5030932;28;20341;-51
2022/02/15 04:07:06;;;;;;;;;;;4.60;99.90;;;;;;5031079;28;19929;-50
2022/02/15 04:09:33;;;;;;;;;;;4.70;99.90;;;;;;5031882;28;20377;-50
2022/02/15 04:12:00;;;;;;;;;;;4.60;99.90;;;;;;5040833;28;19935;-52
2022/02/15 04:14:27;;;;;;;;;;;4.60;99.90;;;;;;5050618;28;19978;-50
2022/02/15 04:16:54;;;;;;;;;;;4.60;99.90;;;;;;5050860;28;19929;-50
2022/02/15 04:19:20;;;;;;;;;;;4.60;99.90;;;;;;5050190;28;19931;-51
2022/02/15 04:21:48;;;;;;;;;;;4.70;99.90;;;;;;5042438;28;19932;-50
2022/02/15 04:24:15;;;;;;;;;;;4.70;99.90;;;;;;5032156;28;19925;-50
2022/02/15 04:26:42;;;;;;;;;;;4.80;99.90;;;;;;5032806;28;19930;-51
2022/02/15 04:29:09;;;;;;;;;;;4.70;99.90;;;;;;5034151;28;19932;-50
2022/02/15 04:31:36;;;;;;;;;;;4.70;99.90;;;;;;5040428;28;19925;-51
2022/02/15 04:34:03;;;;;;;;;;;4.70;99.90;;;;;;5054359;28;19928;-49
2022/02/15 04:36:30;;;;;;;;;;;4.80;99.90;;;;;;5052605;28;19994;-50
2022/02/15 04:38:58;;;;;;;;;;;4.90;99.90;;;;;;5053900;28;19925;-50
2022/02/15 04:41:25;;;;;;;;;;;4.90;99.90;;;;;;5049361;28;19971;-52
2022/02/15 04:43:51;;;;;;;;;;;4.90;99.90;;;;;;5034041;28;20140;-50
2022/02/15 04:46:18;;;;;;;;;;;4.90;99.90;;;;;;5035045;28;19995;-50
2022/02/15 04:48:45;;;;;;;;;;;4.90;99.90;;;;;;5035025;28;19988;-51
2022/02/15 04:51:12;;;;;;;;;;;4.80;99.90;;;;;;5045256;28;20296;-50
2022/02/15 04:53:39;;;;;;;;;;;4.80;99.90;;;;;;5034206;28;19925;-50
2022/02/15 04:56:07;;;;;;;;;;;4.80;99.90;;;;;;5037536;28;20314;-51
2022/02/15 04:58:33;;;;;;;;;;;4.80;99.90;;;;;;5057170;28;19925;-52
2022/02/15 05:01:00;;;;;;;;;;;4.80;99.90;;;;;;5061170;28;20076;-51
2022/02/15 05:03:27;;;;;;;;;;;4.70;99.90;;;;;;5034013;28;19998;-50
2022/02/15 05:05:54;;;;;;;;;;;4.70;99.90;;;;;;5033690;28;19979;-51
2022/02/15 05:08:20;;;;;;;;;;;4.70;99.90;;;;;;5033311;28;20387;-50
2022/02/15 05:10:47;;;;;;;;;;;4.70;99.90;;;;;;5033646;28;19931;-50
2022/02/15 05:13:18;;;;;;;;;;;4.70;99.90;;;;;;5052156;28;19925;-50
2022/02/15 05:15:45;;;;;;;;;;;4.60;99.90;;;;;;5052602;28;19948;-50
2022/02/15 05:18:12;;;;;;;;;;;4.60;99.90;;;;;;5033615;28;19932;-50
2022/02/15 05:20:39;;;;;;;;;;;4.60;99.90;;;;;;5033628;28;19925;-50
2022/02/15 05:23:06;;;;;;;;;;;4.60;99.90;;;;;;5050774;28;20384;-52
2022/02/15 05:25:32;;;;;;;;;;;4.60;99.90;;;;;;5053125;28;20028;-50
2022/02/15 05:27:59;;;;;;;;;;;4.60;99.90;;;;;;5052985;28;20069;-51
2022/02/15 05:30:28;;;;;;;;;;;4.50;99.90;;;;;;5053438;28;20001;-50
2022/02/15 05:32:55;;;;;;;;;;;4.40;99.90;;;;;;5051727;28;19929;-50
2022/02/15 05:35:22;;;;;;;;;;;4.40;99.90;;;;;;5052810;28;19978;-50
2022/02/15 05:37:48;;;;;;;;;;;4.50;99.90;;;;;;5051253;28;19929;-52
2022/02/15 05:40:15;;;;;;;;;;;4.50;99.90;;;;;;5052620;28;19928;-50
2022/02/15 05:42:43;;;;;;;;;;;4.50;99.90;;;;;;5041492;28;19929;-52
2022/02/15 05:45:10;;;;;;;;;;;4.40;99.90;;;;;;5045213;28;19929;-50
2022/02/15 05:47:38;;;;;;;;;;;4.40;99.90;;;;;;5053075;28;19925;-51
2022/02/15 05:52:50;;;;;;;;;;;4.40;99.90;;;;;;5051905;28;20436;-51
2022/02/15 05:55:16;;;;;;;;;;;4.40;99.90;;;;;;5051495;28;19929;-52
2022/02/15 05:57:43;;;;;;;;;;;4.40;99.90;;;;;;5052716;28;19925;-49
2022/02/15 06:00:12;;;;;;;;;;;4.40;99.90;;;;;;5052832;28;19991;-49
2022/02/15 06:02:41;;;;;;;;;;;4.30;99.90;;;;;;5051309;28;20048;-49
2022/02/15 06:05:08;;;;;;;;;;;4.20;99.90;;;;;;5052322;28;19925;-51
2022/02/15 06:07:35;;;;;;;;;;;4.20;99.90;;;;;;5051330;28;19925;-49
2022/02/15 06:10:01;;;;;;;;;;;4.30;99.90;;;;;;5051343;28;19986;-49
2022/02/15 06:12:28;;;;;;;;;;;4.20;99.90;;;;;;5042173;28;19932;-50
2022/02/15 06:14:55;;;;;;;;;;;4.20;99.90;;;;;;5052403;28;19925;-50
2022/02/15 06:17:21;;;;;;;;;;;4.20;99.90;;;;;;5051992;28;19929;-50
2022/02/15 06:19:50;;;;;;;;;;;4.10;99.90;;;;;;5052047;28;19925;-50
2022/02/15 06:22:17;;;;;;;;;;;4.10;99.90;;;;;;5046564;28;19928;-51
2022/02/15 06:24:43;;;;;;;;;;;4.10;99.90;;;;;;5052000;28;20401;-51
2022/02/15 06:27:10;;;;;;;;;;;4.10;99.90;;;;;;5051575;28;19929;-51
2022/02/15 06:29:37;;;;;;;;;;;4.00;99.90;;;;;;5051199;28;19925;-51
2022/02/15 06:32:04;;;;;;;;;;;4.10;99.90;;;;;;5043752;28;19925;-52
2022/02/15 06:34:31;;;;;;;;;;;4.20;99.90;;;;;;5033465;28;19929;-49
2022/02/15 06:36:59;;;;;;;;;;;4.10;99.90;;;;;;5032216;28;20306;-51
2022/02/15 06:39:26;;;;;;;;;;;4.20;99.90;;;;;;5032266;28;20307;-50
2022/02/15 06:41:52;;;;;;;;;;;4.10;99.90;;;;;;5051838;28;19991;-51
2022/02/15 06:44:19;;;;;;;;;;;4.10;99.90;;;;;;5053011;28;20395;-50
2022/02/15 06:46:47;;;;;;;;;;;4.10;99.90;;;;;;5051453;28;19979;-58
2022/02/15 06:49:14;;;;;;;;;;;4.10;99.90;;;;;;5051009;28;20409;-51
2022/02/15 06:51:41;;;;;;;;;;;4.10;99.90;;;;;;5050125;28;20379;-50
2022/02/15 06:54:09;;;;;;;;;;;4.00;99.90;;;;;;5042499;28;19990;-50
2022/02/15 06:56:37;;;;;;;;;;;4.00;99.90;;;;;;5041306;28;19925;-50
2022/02/15 06:59:04;;;;;;;;;;;4.00;99.90;;;;;;5048776;28;19925;-51
2022/02/15 07:01:31;;;;;;;;;;;4.10;99.90;;;;;;5051025;28;19925;-49
2022/02/15 07:03:58;;;;;;;;;;;4.10;99.90;;;;;;5051756;28;19925;-52
2022/02/15 07:06:24;;;;;;;;;;;4.20;99.90;;;;;;5051367;28;20394;-49
2022/02/15 07:08:51;;;;;;;;;;;4.20;99.90;;;;;;5051627;28;19924;-50
2022/02/15 07:11:20;;;;;;;;;;;4.30;99.90;;;;;;5051403;28;19924;-51
2022/02/15 07:13:46;;;;;;;;;;;4.30;99.90;;;;;;5038021;28;19934;-51
2022/02/15 07:16:13;;;;;;;;;;;4.40;99.90;;;;;;5050763;28;19925;-50
2022/02/15 07:18:42;;;;;;;;;;;4.40;99.90;;;;;;5046220;28;19986;-50
2022/02/15 07:21:09;;;;;;;;;;;4.50;99.90;;;;;;5051174;28;20047;-50
2022/02/15 07:23:36;;;;;;;;;;;4.40;99.90;;;;;;5047260;28;19925;-51
2022/02/15 07:26:03;;;;;;;;;;;4.50;99.90;;;;;;5046261;28;19928;-51
2022/02/15 07:28:33;;;;;;;;;;;4.50;99.90;;;;;;5051112;28;19925;-51
2022/02/15 07:31:00;;;;;;;;;;;4.40;99.90;;;;;;5049602;28;20353;-50
2022/02/15 07:33:27;;;;;;;;;;;4.30;99.90;;;;;;5049426;28;19948;-52
2022/02/15 07:35:53;;;;;;;;;;;4.40;99.90;;;;;;5051046;28;20004;-50
2022/02/15 07:38:21;;;;;;;;;;;4.50;99.90;;;;;;5050953;28;19929;-50
2022/02/15 07:40:47;;;;;;;;;;;4.50;99.90;;;;;;5050906;28;19944;-50
2022/02/15 07:43:14;;;;;;;;;;;4.40;99.90;;;;;;5049189;28;19925;-50
2022/02/15 07:45:42;;;;;;;;;;;4.50;99.90;;;;;;5049830;28;19925;-52
2022/02/15 07:48:09;;;;;;;;;;;4.40;99.90;;;;;;5050991;28;20165;-52
2022/02/15 07:50:36;;;;;;;;;;;4.40;99.90;;;;;;5051194;28;19925;-51
2022/02/15 07:53:03;;;;;;;;;;;4.40;99.90;;;;;;5045783;28;20344;-51
2022/02/15 07:55:30;;;;;;;;;;;4.40;99.90;;;;;;5048598;28;19932;-50
2022/02/15 07:57:56;;;;;;;;;;;4.60;99.90;;;;;;5091231;22;20310;-55
2022/02/15 08:00:23;;;;;;;;;;;4.80;99.90;;;;;;5071279;28;19924;-52
2022/02/15 08:02:52;;;;;;;;;;;4.90;99.90;;;;;;5075573;28;19924;-53
2022/02/15 08:05:19;;;;;;;;;;;4.90;99.90;;;;;;5071681;28;19924;-54
2022/02/15 08:07:46;;;;;;;;;;;4.90;99.90;;;;;;5063280;28;20367;-54
2022/02/15 08:10:14;;;;;;;;;;;5.00;99.90;;;;;;5074245;28;19990;-53
2022/02/15 08:12:41;;;;;;;;;;;5.10;99.90;;;;;;5075519;28;20014;-53
2022/02/15 08:15:08;;;;;;;;;;;5.20;99.90;;;;;;5066871;28;19932;-53
2022/02/15 08:17:35;;;;;;;;;;;5.20;99.90;;;;;;5057908;28;19925;-53
2022/02/15 08:20:04;;;;;;;;;;;5.20;99.90;;;;;;5057872;28;19925;-54
2022/02/15 08:22:30;;;;;;;;;;;5.20;99.90;;;;;;5075856;28;19989;-53
2022/02/15 08:24:57;;;;;;;;;;;5.30;99.90;;;;;;5075260;28;19931;-53
2022/02/15 08:27:24;;;;;;;;;;;5.30;99.90;;;;;;5075642;28;19924;-55
2022/02/15 08:29:51;;;;;;;;;;;5.20;99.90;;;;;;5072743;28;19970;-54
2022/02/15 08:32:17;;;;;;;;;;;5.20;99.90;;;;;;5075597;28;19925;-54
2022/02/15 08:34:45;;;;;;;;;;;5.20;99.90;;;;;;5069767;28;19925;-54
2022/02/15 08:37:13;;;;;;;;;;;5.20;99.90;;;;;;5072146;28;20023;-54
2022/02/15 08:39:40;;;;;;;;;;;5.10;99.90;;;;;;5065998;28;19971;-54
2022/02/15 08:42:07;;;;;;;;;;;5.10;99.90;;;;;;5066527;28;19994;-54
2022/02/15 08:44:34;;;;;;;;;;;5.10;99.90;;;;;;5068017;28;19928;-53
2022/02/15 08:47:01;;;;;;;;;;;5.00;99.90;;;;;;5064911;28;20379;-54
2022/02/15 08:49:27;;;;;;;;;;;5.10;99.90;;;;;;5059452;28;20291;-54
2022/02/15 08:51:55;;;;;;;;;;;5.20;99.90;;;;;;5075299;28;19924;-55
2022/02/15 08:54:23;;;;;;;;;;;5.30;99.90;;;;;;5072539;28;19969;-55
